createdAt,value
2018-05-23T00:00:38.534Z,47.30
2018-05-23T00:03:40.994Z,47.40
2018-05-23T00:06:44.210Z,47.00
2018-05-23T00:09:46.659Z,47.00
2018-05-23T00:12:49.882Z,48.30
2018-05-23T00:15:52.325Z,48.20
2018-05-23T00:18:55.554Z,47.20
2018-05-23T00:21:58.017Z,47.20
2018-05-23T00:25:00.458Z,47.20
2018-05-23T00:28:02.925Z,47.60
2018-05-23T00:31:05.376Z,48.00
2018-05-23T00:34:08.607Z,47.60
2018-05-23T00:37:11.061Z,46.90
2018-05-23T00:40:13.501Z,46.70
2018-05-23T00:43:15.970Z,46.50
2018-05-23T00:46:18.426Z,45.90
2018-05-23T00:49:21.653Z,45.50
2018-05-23T00:52:24.118Z,45.50
2018-05-23T00:55:34.376Z,45.90
2018-05-23T00:58:36.834Z,45.80
2018-05-23T01:01:39.298Z,45.10
2018-05-23T01:04:41.741Z,45.30
2018-05-23T01:07:44.209Z,44.70
2018-05-23T01:10:46.661Z,45.10
2018-05-23T01:13:49.125Z,44.70
2018-05-23T01:16:51.589Z,44.80
2018-05-23T01:19:54.803Z,45.10
2018-05-23T01:22:57.254Z,45.10
2018-05-23T01:25:59.710Z,44.70
2018-05-23T01:29:02.162Z,45.00
2018-05-23T01:32:04.629Z,44.70
2018-05-23T01:35:07.081Z,44.80
2018-05-23T01:38:09.677Z,44.90
2018-05-23T01:41:12.110Z,44.10
2018-05-23T01:44:14.572Z,44.80
2018-05-23T01:47:17.035Z,44.70
2018-05-23T01:50:19.493Z,44.50
2018-05-23T01:53:21.954Z,44.70
2018-05-23T01:56:24.405Z,44.50
2018-05-23T01:59:26.862Z,44.80
2018-05-23T02:02:29.330Z,44.70
2018-05-23T02:05:31.790Z,45.10
2018-05-23T02:08:34.250Z,44.50
2018-05-23T02:11:36.697Z,44.00
2018-05-23T02:14:39.914Z,43.70
2018-05-23T02:17:42.371Z,43.70
2018-05-23T02:20:45.578Z,43.90
2018-05-23T02:23:48.032Z,43.80
2018-05-23T02:26:51.250Z,44.10
2018-05-23T02:29:53.727Z,44.00
2018-05-23T02:32:56.186Z,44.20
2018-05-23T02:35:59.397Z,44.70
2018-05-23T02:39:01.903Z,44.70
2018-05-23T02:42:04.350Z,44.60
2018-05-23T02:45:06.825Z,45.10
2018-05-23T02:48:09.978Z,44.70
2018-05-23T02:51:12.430Z,44.60
2018-05-23T02:54:14.896Z,44.50
2018-05-23T02:57:17.349Z,44.80
2018-05-23T03:00:19.805Z,45.10
2018-05-23T03:03:23.043Z,45.60
2018-05-23T03:06:25.483Z,45.60
2018-05-23T03:09:28.706Z,45.70
2018-05-23T03:12:31.159Z,45.70
2018-05-23T03:15:33.625Z,45.70
2018-05-23T03:18:36.841Z,45.60
2018-05-23T03:21:39.298Z,45.60
2018-05-23T03:24:42.527Z,45.60
2018-05-23T03:27:44.972Z,45.60
2018-05-23T03:30:48.234Z,45.30
2018-05-23T03:33:50.682Z,45.30
2018-05-23T03:36:53.150Z,45.30
2018-05-23T03:39:55.607Z,45.10
2018-05-23T03:42:58.050Z,45.10
2018-05-23T03:46:00.519Z,45.70
2018-05-23T03:49:02.970Z,45.90
2018-05-23T03:52:05.425Z,46.30
2018-05-23T03:55:07.886Z,46.30
2018-05-23T03:58:10.329Z,46.70
2018-05-23T04:01:24.585Z,46.60
2018-05-23T04:04:39.084Z,46.60
2018-05-23T04:07:41.521Z,46.80
2018-05-23T04:10:45.490Z,47.10
2018-05-23T04:13:47.934Z,47.10
2018-05-23T04:16:51.162Z,47.40
2018-05-23T04:19:53.646Z,47.40
2018-05-23T04:22:56.096Z,47.80
2018-05-23T04:25:58.554Z,47.70
2018-05-23T04:29:01.014Z,47.90
2018-05-23T04:32:04.230Z,48.20
2018-05-23T04:35:07.459Z,48.10
2018-05-23T04:38:09.920Z,48.00
2018-05-23T04:41:12.394Z,48.20
2018-05-23T04:44:14.864Z,48.20
2018-05-23T04:47:17.322Z,48.20
2018-05-23T04:50:20.552Z,47.90
2018-05-23T04:53:22.988Z,47.90
2018-05-23T04:56:26.215Z,48.20
2018-05-23T04:59:28.675Z,48.20
2018-05-23T05:02:31.890Z,47.50
2018-05-23T05:05:34.334Z,47.50
2018-05-23T05:08:36.788Z,48.20
2018-05-23T05:11:39.247Z,47.90
2018-05-23T05:14:41.690Z,47.60
2018-05-23T05:17:56.975Z,47.80
2018-05-23T05:20:59.445Z,47.20
2018-05-23T05:24:01.889Z,47.10
2018-05-23T05:27:04.346Z,47.40
2018-05-23T05:30:06.806Z,47.30
2018-05-23T05:33:09.258Z,47.10
2018-05-23T05:36:11.726Z,46.70
2018-05-23T05:39:14.182Z,46.60
2018-05-23T05:42:17.417Z,46.30
2018-05-23T05:45:19.894Z,46.20
2018-05-23T05:48:22.354Z,46.80
2018-05-23T05:51:24.824Z,46.60
2018-05-23T05:54:27.266Z,46.80
2018-05-23T05:57:29.726Z,47.20
2018-05-23T06:00:32.196Z,47.30
2018-05-23T06:03:34.663Z,47.10
2018-05-23T06:06:37.250Z,47.40
2018-05-23T06:09:39.739Z,48.00
2018-05-23T06:12:42.185Z,47.80
2018-05-23T06:15:44.676Z,46.50
2018-05-23T06:18:47.798Z,43.70
2018-05-23T06:21:50.253Z,40.80
2018-05-23T06:24:52.722Z,39.00
2018-05-23T06:27:55.181Z,36.80
2018-05-23T06:30:57.645Z,36.50
2018-05-23T06:34:00.094Z,37.10
2018-05-23T06:37:02.553Z,38.10
2018-05-23T06:40:24.220Z,37.30
2018-05-23T06:43:26.761Z,37.50
2018-05-23T06:46:29.925Z,39.60
2018-05-23T06:49:32.353Z,39.50
2018-05-23T06:52:35.569Z,42.10
2018-05-23T06:55:38.019Z,41.90
2018-05-23T06:58:40.466Z,42.90
2018-05-23T07:01:42.949Z,41.60
2018-05-23T07:04:45.377Z,42.30
2018-05-23T07:07:47.839Z,42.80
2018-05-23T07:10:51.046Z,41.00
2018-05-23T07:13:53.502Z,41.00
2018-05-23T07:16:56.724Z,38.90
2018-05-23T07:19:59.161Z,38.80
2018-05-23T07:23:02.390Z,38.50
2018-05-23T07:26:04.826Z,38.40
2018-05-23T07:29:07.293Z,39.20
2018-05-23T07:32:09.753Z,40.10
2018-05-23T07:35:12.206Z,41.10
2018-05-23T07:38:14.671Z,40.80
2018-05-23T07:41:17.134Z,40.50
2018-05-23T07:44:19.603Z,41.40
2018-05-23T07:47:22.822Z,42.70
2018-05-23T07:50:25.274Z,42.70
2018-05-23T07:53:28.501Z,41.10
2018-05-23T07:56:30.966Z,41.10
2018-05-23T07:59:33.441Z,40.70
2018-05-23T08:02:35.926Z,41.20
2018-05-23T08:05:38.377Z,40.40
2018-05-23T08:08:41.602Z,37.40
2018-05-23T08:11:44.055Z,37.30
2018-05-23T08:14:46.505Z,37.40
2018-05-23T08:17:48.966Z,36.60
2018-05-23T08:20:51.425Z,37.10
2018-05-23T08:23:53.902Z,36.30
2018-05-23T08:26:56.362Z,36.20
2018-05-23T08:29:58.829Z,35.10
2018-05-23T08:33:01.290Z,35.60
2018-05-23T08:36:03.735Z,35.60
2018-05-23T08:39:06.189Z,34.90
2018-05-23T08:42:08.638Z,35.40
2018-05-23T08:45:11.086Z,34.90
2018-05-23T08:48:14.318Z,34.90
2018-05-23T08:51:16.758Z,34.90
2018-05-23T08:54:19.992Z,35.90
2018-05-23T08:57:22.429Z,36.60
2018-05-23T09:00:25.663Z,35.40
2018-05-23T09:03:28.112Z,35.30
2018-05-23T09:06:30.562Z,35.40
2018-05-23T09:09:33.018Z,34.70
2018-05-23T09:12:35.492Z,35.70
2018-05-23T09:15:37.918Z,31.80
2018-05-23T09:18:40.374Z,33.40
2018-05-23T09:21:43.591Z,34.30
2018-05-23T09:24:46.049Z,34.20
2018-05-23T09:28:02.990Z,36.10
2018-05-23T09:31:05.433Z,36.00
2018-05-23T09:34:08.820Z,36.90
2018-05-23T09:37:11.292Z,36.10
2018-05-23T09:40:13.769Z,36.90
2018-05-23T09:43:16.230Z,37.50
2018-05-23T09:46:18.674Z,38.00
2018-05-23T09:49:35.593Z,37.70
2018-05-23T09:52:38.059Z,36.90
2018-05-23T09:55:40.550Z,34.60
2018-05-23T09:58:43.022Z,35.10
2018-05-23T10:01:45.470Z,34.50
2018-05-23T10:04:48.705Z,33.80
2018-05-23T10:07:51.145Z,33.80
2018-05-23T10:10:54.365Z,33.80
2018-05-23T10:13:56.861Z,33.80
2018-05-23T10:16:59.300Z,33.70
2018-05-23T10:20:01.770Z,34.30
2018-05-23T10:23:04.986Z,34.30
2018-05-23T10:26:07.445Z,34.10
2018-05-23T10:29:10.678Z,30.30
2018-05-23T10:32:13.137Z,30.30
2018-05-23T10:35:15.601Z,31.30
2018-05-23T10:38:18.046Z,33.70
2018-05-23T10:41:20.514Z,32.20
2018-05-23T10:44:22.966Z,33.10
2018-05-23T10:47:25.418Z,33.10
2018-05-23T10:50:27.890Z,32.10
2018-05-23T10:53:30.324Z,32.70
2018-05-23T10:56:32.785Z,32.30
2018-05-23T10:59:35.242Z,33.40
2018-05-23T11:02:37.706Z,32.10
2018-05-23T11:05:40.244Z,32.30
2018-05-23T11:08:43.541Z,32.60
2018-05-23T11:11:46.004Z,32.60
2018-05-23T11:14:48.506Z,34.00
2018-05-23T11:17:51.693Z,34.30
2018-05-23T11:20:54.926Z,34.60
2018-05-23T11:23:57.379Z,34.50
2018-05-23T11:27:00.615Z,34.30
2018-05-23T11:30:03.061Z,34.40
2018-05-23T11:33:05.505Z,33.60
2018-05-23T11:36:07.962Z,31.60
2018-05-23T11:39:10.429Z,32.10
2018-05-23T11:42:12.881Z,31.90
2018-05-23T11:45:15.343Z,32.70
2018-05-23T11:48:17.819Z,32.90
2018-05-23T11:51:20.265Z,31.10
2018-05-23T11:54:22.722Z,30.90
2018-05-23T11:57:25.171Z,31.70
2018-05-23T12:00:27.653Z,31.80
2018-05-23T12:03:30.101Z,32.00
2018-05-23T12:06:32.550Z,31.70
2018-05-23T12:09:35.775Z,31.80
2018-05-23T12:12:38.226Z,31.10
2018-05-23T12:15:41.451Z,31.70
2018-05-23T12:18:43.906Z,31.60
2018-05-23T12:21:47.157Z,33.10
2018-05-23T12:24:49.617Z,33.00
2018-05-23T12:27:52.068Z,31.60
2018-05-23T12:30:54.533Z,32.50
2018-05-23T12:33:57.741Z,33.00
2018-05-23T12:37:00.211Z,33.00
2018-05-23T12:40:02.677Z,33.60
2018-05-23T12:43:05.901Z,33.40
2018-05-23T12:46:08.352Z,33.30
2018-05-23T12:49:11.572Z,33.20
2018-05-23T12:52:14.054Z,33.20
2018-05-23T12:55:16.527Z,33.50
2018-05-23T12:58:18.990Z,33.90
2018-05-23T13:01:21.469Z,33.30
2018-05-23T13:04:23.918Z,33.20
2018-05-23T13:07:26.378Z,33.80
2018-05-23T13:10:28.853Z,33.20
2018-05-23T13:13:32.258Z,33.90
2018-05-23T13:16:34.726Z,33.20
2018-05-23T13:19:37.170Z,33.70
2018-05-23T13:22:39.640Z,33.80
2018-05-23T13:25:42.105Z,32.80
2018-05-23T13:28:44.545Z,33.90
2018-05-23T13:31:47.012Z,33.90
2018-05-23T13:34:49.466Z,34.30
2018-05-23T13:37:51.933Z,33.80
2018-05-23T13:40:54.393Z,32.30
2018-05-23T13:43:56.854Z,33.00
2018-05-23T13:47:00.062Z,34.10
2018-05-23T13:50:02.506Z,34.10
2018-05-23T13:53:05.745Z,33.20
2018-05-23T13:56:08.206Z,33.00
2018-05-23T13:59:10.662Z,32.80
2018-05-23T14:02:13.918Z,33.20
2018-05-23T14:05:16.362Z,33.20
2018-05-23T14:08:18.829Z,33.50
2018-05-23T14:11:21.294Z,32.30
2018-05-23T14:14:23.746Z,31.90
2018-05-23T14:17:29.296Z,33.00
2018-05-23T14:20:31.736Z,33.10
2018-05-23T14:23:34.198Z,34.70
2018-05-23T14:26:36.661Z,35.30
2018-05-23T14:29:39.110Z,36.10
2018-05-23T14:32:42.335Z,37.10
2018-05-23T14:35:44.811Z,37.00
2018-05-23T14:38:48.011Z,37.50
2018-05-23T14:41:50.470Z,37.50
2018-05-23T14:44:52.909Z,39.00
2018-05-23T14:47:55.373Z,39.20
2018-05-23T14:50:57.823Z,39.00
2018-05-23T14:54:00.277Z,40.00
2018-05-23T14:57:02.795Z,39.10
2018-05-23T15:00:05.245Z,39.40
2018-05-23T15:03:07.703Z,39.50
2018-05-23T15:06:10.139Z,39.60
2018-05-23T15:09:12.776Z,40.50
2018-05-23T15:12:15.389Z,40.20
2018-05-23T15:15:41.149Z,40.50
2018-05-23T15:18:48.808Z,40.70
2018-05-23T15:21:53.277Z,40.90
2018-05-23T15:25:00.553Z,41.30
2018-05-23T15:28:03.021Z,41.50
2018-05-23T15:31:05.482Z,41.60
2018-05-23T15:34:18.627Z,41.90
2018-05-23T15:37:43.005Z,41.70
2018-05-23T15:40:50.931Z,41.90
2018-05-23T15:44:12.623Z,41.90
2018-05-23T15:47:29.011Z,42.40
2018-05-23T15:50:35.645Z,42.00
2018-05-23T15:53:49.139Z,41.20
2018-05-23T15:57:17.214Z,40.40
2018-05-23T16:00:20.658Z,40.10
2018-05-23T16:03:29.265Z,40.60
2018-05-23T16:06:33.690Z,40.60
2018-05-23T16:09:38.118Z,40.60
2018-05-23T16:12:48.557Z,41.20
2018-05-23T16:15:51.000Z,40.50
2018-05-23T16:18:54.460Z,41.10
2018-05-23T16:21:56.942Z,41.10
2018-05-23T16:25:03.194Z,41.50
2018-05-23T16:28:12.726Z,41.50
2018-05-23T16:31:15.165Z,41.50
2018-05-23T16:34:17.629Z,42.00
2018-05-23T16:37:26.885Z,41.70
2018-05-23T16:40:29.357Z,41.50
2018-05-23T16:43:32.047Z,41.70
2018-05-23T16:46:34.494Z,42.10
2018-05-23T16:49:38.894Z,42.10
2018-05-23T16:52:42.115Z,42.30
2018-05-23T16:55:44.576Z,42.30
2018-05-23T16:58:47.802Z,41.90
2018-05-23T17:01:50.241Z,41.90
2018-05-23T17:05:07.499Z,42.20
2018-05-23T17:08:09.950Z,42.20
2018-05-23T17:11:12.413Z,42.60
2018-05-23T17:14:15.634Z,42.70
2018-05-23T17:17:18.094Z,43.30
2018-05-23T17:20:21.315Z,42.50
2018-05-23T17:23:23.766Z,42.50
2018-05-23T17:26:26.996Z,42.30
2018-05-23T17:29:29.458Z,42.30
2018-05-23T17:32:31.901Z,42.40
2018-05-23T17:35:35.134Z,42.90
2018-05-23T17:38:37.577Z,42.90
2018-05-23T17:41:40.813Z,43.00
2018-05-23T17:44:43.282Z,42.90
2018-05-23T17:47:45.733Z,42.80
2018-05-23T17:50:48.197Z,42.80
2018-05-23T17:53:51.438Z,43.00
2018-05-23T17:56:53.892Z,43.00
2018-05-23T17:59:56.333Z,42.70
2018-05-23T18:02:58.785Z,42.70
2018-05-23T18:06:01.364Z,42.50
2018-05-23T18:09:03.679Z,43.00
2018-05-23T18:12:06.939Z,43.20
2018-05-23T18:15:09.391Z,43.10
2018-05-23T18:18:11.825Z,43.10
2018-05-23T18:21:15.053Z,43.00
2018-05-23T18:24:17.547Z,43.00
2018-05-23T18:27:20.029Z,43.30
2018-05-23T18:30:48.349Z,43.60
2018-05-23T18:33:50.791Z,43.70
2018-05-23T18:36:53.259Z,44.00
2018-05-23T18:39:55.709Z,44.20
2018-05-23T18:42:58.153Z,44.10
2018-05-23T18:46:00.611Z,44.20
2018-05-23T18:49:03.050Z,44.30
2018-05-23T18:52:05.519Z,44.20
2018-05-23T18:55:07.979Z,43.90
2018-05-23T18:58:10.421Z,44.20
2018-05-23T19:01:12.906Z,44.30
2018-05-23T19:04:15.347Z,44.50
2018-05-23T19:07:17.810Z,44.70
2018-05-23T19:10:20.273Z,44.60
2018-05-23T19:13:22.729Z,45.10
2018-05-23T19:16:25.949Z,45.30
2018-05-23T19:19:28.407Z,45.30
2018-05-23T19:22:31.626Z,45.80
2018-05-23T19:25:34.090Z,45.70
2018-05-23T19:28:36.548Z,45.60
2018-05-23T19:31:39.774Z,45.50
2018-05-23T19:34:42.227Z,45.50
2018-05-23T19:37:46.280Z,45.80
2018-05-23T19:40:48.741Z,45.80
2018-05-23T19:43:51.193Z,45.50
2018-05-23T19:46:54.426Z,45.50
2018-05-23T19:49:56.873Z,45.40
2018-05-23T19:52:59.449Z,45.30
2018-05-23T19:56:02.571Z,45.30
2018-05-23T19:59:05.027Z,45.30
2018-05-23T20:02:07.514Z,45.30
2018-05-23T20:05:09.945Z,45.40
2018-05-23T20:08:12.435Z,45.40
2018-05-23T20:11:14.878Z,45.70
2018-05-23T20:14:17.555Z,45.50
2018-05-23T20:17:19.801Z,45.40
2018-05-23T20:20:22.254Z,45.50
2018-05-23T20:23:24.714Z,45.80
2018-05-23T20:26:27.934Z,45.50
2018-05-23T20:29:30.382Z,45.40
2018-05-23T20:32:33.614Z,46.10
2018-05-23T20:35:36.059Z,45.30
2018-05-23T20:38:38.521Z,45.20
2018-05-23T20:41:40.990Z,44.90
2018-05-23T20:44:43.442Z,45.10
2018-05-23T20:47:45.928Z,44.90
2018-05-23T20:50:48.348Z,44.50
2018-05-23T20:53:51.562Z,44.80
2018-05-23T20:56:54.033Z,44.80
2018-05-23T20:59:57.233Z,44.80
2018-05-23T21:02:59.706Z,44.70
2018-05-23T21:06:02.902Z,44.40
2018-05-23T21:09:05.387Z,44.30
2018-05-23T21:12:07.879Z,43.90
2018-05-23T21:15:10.384Z,43.90
2018-05-23T21:18:12.888Z,44.10
2018-05-23T21:21:16.118Z,44.00
2018-05-23T21:24:18.614Z,44.00
2018-05-23T21:27:21.106Z,44.10
2018-05-23T21:30:23.614Z,43.90
2018-05-23T21:33:26.862Z,44.30
2018-05-23T21:36:29.329Z,44.20
2018-05-23T21:39:31.818Z,44.30
2018-05-23T21:42:34.306Z,44.10
2018-05-23T21:45:36.766Z,44.30
2018-05-23T21:48:39.234Z,44.50
2018-05-23T21:51:41.704Z,44.30
2018-05-23T21:54:44.190Z,44.30
2018-05-23T21:57:46.666Z,44.40
2018-05-23T22:00:49.118Z,44.30
2018-05-23T22:03:52.330Z,44.10
2018-05-23T22:06:54.791Z,43.90
2018-05-23T22:09:57.253Z,44.00
2018-05-23T22:13:00.487Z,44.10
2018-05-23T22:16:02.943Z,44.00
2018-05-23T22:19:05.406Z,43.70
2018-05-23T22:22:08.617Z,43.90
2018-05-23T22:25:11.070Z,43.80
2018-05-23T22:28:14.301Z,43.40
2018-05-23T22:31:16.741Z,43.40
2018-05-23T22:34:20.018Z,46.20
2018-05-23T22:37:22.474Z,46.20
2018-05-23T22:40:25.335Z,46.10
2018-05-23T22:43:27.777Z,46.60
2018-05-23T22:46:30.993Z,46.00
2018-05-23T22:49:33.450Z,46.00
2018-05-23T22:52:36.659Z,45.30
2018-05-23T22:55:39.141Z,45.30
2018-05-23T22:58:41.598Z,45.30
2018-05-23T23:01:44.810Z,45.30
2018-05-23T23:04:47.267Z,45.30
2018-05-23T23:07:50.481Z,44.90
2018-05-23T23:10:52.945Z,44.90
2018-05-23T23:13:56.161Z,44.70
2018-05-23T23:16:58.605Z,44.60
2018-05-23T23:20:01.835Z,44.60
2018-05-23T23:23:04.277Z,44.60
2018-05-23T23:26:07.502Z,44.50
2018-05-23T23:29:09.972Z,44.50
2018-05-23T23:32:12.434Z,44.30
2018-05-23T23:35:15.659Z,44.50
2018-05-23T23:38:18.109Z,44.50
2018-05-23T23:41:20.565Z,44.60
2018-05-23T23:44:23.033Z,44.50
2018-05-23T23:47:25.475Z,44.70
2018-05-23T23:50:27.937Z,44.80
2018-05-23T23:53:30.382Z,44.80
2018-05-23T23:56:33.622Z,44.70
2018-05-23T23:59:36.070Z,44.70
